Time;durP1;ratioP1;P1;durP2;ratioP2;P2;SDS_P1;SDS_P2;PMS_P1;PMS_P2;Temp;Humidity;BMP_temperature;BMP_pressure;BME280_temperature;BME280_humidity;BME280_pressure;Samples;Min_cycle;Max_cycle;Signal;HPM_P1;HPM_P2
2023/11/24 00:00:13;;;;;;;1.80;0.60;;;;;;;;;;103928;1291;545527;-70
2023/11/24 00:03:51;;;;;;;2.20;0.70;;;;;;;;;;103677;1291;545225;-72
2023/11/24 00:07:29;;;;;;;2.40;0.80;;;;;;;;;;103470;1298;545008;-71
2023/11/24 00:11:06;;;;;;;1.70;0.50;;;;;;;;;;103905;1289;545083;-70
2023/11/24 00:14:49;;;;;;;1.60;0.50;;;;;;;;;;103557;1291;548121;-72
2023/11/24 00:18:21;;;;;;;3.70;0.50;;;;;;;;;;103933;1295;544745;-70
2023/11/24 00:21:59;;;;;;;2.90;0.50;;;;;;;;;;104302;1285;545854;-71
2023/11/24 00:25:37;;;;;;;3.70;0.50;;;;;;;;;;103771;1290;544782;-70
2023/11/24 00:29:21;;;;;;;3.10;0.70;;;;;;;;;;104314;1285;547902;-71
2023/11/24 00:32:51;;;;;;;4.20;0.70;;;;;;;;;;104637;1282;545613;-70
2023/11/24 00:36:34;;;;;;;3.50;0.90;;;;;;;;;;103698;1292;547996;-72
2023/11/24 00:40:12;;;;;;;2.60;0.60;;;;;;;;;;104095;1285;545146;-72
2023/11/24 00:43:44;;;;;;;2.80;0.50;;;;;;;;;;103826;1294;544812;-70
2023/11/24 00:47:21;;;;;;;3.80;0.70;;;;;;;;;;103842;1289;545863;-72
2023/11/24 00:50:58;;;;;;;5.70;1.30;;;;;;;;;;104492;1283;544912;-72
2023/11/24 00:54:37;;;;;;;4.10;0.50;;;;;;;;;;104114;1285;544963;-71
2023/11/24 00:58:13;;;;;;;2.30;0.50;;;;;;;;;;103870;1289;544967;-72
2023/11/24 01:01:50;;;;;;;3.10;0.50;;;;;;;;;;103804;1291;545581;-75
2023/11/24 01:05:28;;;;;;;5.20;0.60;;;;;;;;;;104499;1281;545045;-71
2023/11/24 01:09:06;;;;;;;2.80;0.60;;;;;;;;;;103912;1292;544985;-72
2023/11/24 01:12:43;;;;;;;6.10;0.80;;;;;;;;;;103813;1289;544763;-71
2023/11/24 01:16:20;;;;;;;4.00;0.90;;;;;;;;;;104095;1289;545527;-70
2023/11/24 01:19:58;;;;;;;4.40;0.70;;;;;;;;;;103780;1292;544927;-72
2023/11/24 01:23:35;;;;;;;3.50;0.60;;;;;;;;;;103810;1292;544872;-71
2023/11/24 01:27:13;;;;;;;4.00;0.70;;;;;;;;;;103602;1294;545605;-69
2023/11/24 01:30:50;;;;;;;3.60;0.60;;;;;;;;;;104007;1289;546005;-70
2023/11/24 01:34:28;;;;;;;5.20;0.90;;;;;;;;;;103841;1288;544939;-70
2023/11/24 01:38:05;;;;;;;4.40;0.90;;;;;;;;;;104018;1289;545696;-71
2023/11/24 01:41:43;;;;;;;6.80;0.70;;;;;;;;;;103756;1292;544930;-72
2023/11/24 01:45:21;;;;;;;4.30;0.60;;;;;;;;;;103824;1291;544969;-71
2023/11/24 01:48:58;;;;;;;4.50;0.80;;;;;;;;;;103744;1291;545319;-76
2023/11/24 01:52:36;;;;;;;6.30;1.00;;;;;;;;;;103699;1292;545556;-72
2023/11/24 01:56:13;;;;;;;5.90;0.70;;;;;;;;;;103719;1292;545194;-72
2023/11/24 01:59:52;;;;;;;7.00;1.00;;;;;;;;;;103594;1298;545370;-72
2023/11/24 02:03:27;;;;;;;6.90;1.00;;;;;;;;;;103824;1292;546036;-72
2023/11/24 02:07:06;;;;;;;6.70;1.20;;;;;;;;;;104151;1289;545275;-74
2023/11/24 02:10:43;;;;;;;4.70;0.80;;;;;;;;;;103567;1294;545345;-72
2023/11/24 02:14:20;;;;;;;4.50;0.80;;;;;;;;;;104160;1285;545408;-70
2023/11/24 02:17:58;;;;;;;7.10;1.00;;;;;;;;;;103591;1292;545365;-72
2023/11/24 02:21:35;;;;;;;4.80;0.80;;;;;;;;;;103568;1297;545049;-71
2023/11/24 02:25:13;;;;;;;6.00;1.10;;;;;;;;;;103747;1295;544793;-72
2023/11/24 02:28:50;;;;;;;8.10;1.10;;;;;;;;;;104489;1285;544988;-71
2023/11/24 02:32:28;;;;;;;7.00;0.90;;;;;;;;;;103726;1304;545761;-71
2023/11/24 02:36:08;;;;;;;6.80;0.90;;;;;;;;;;103802;1292;544712;-70
2023/11/24 02:39:42;;;;;;;4.20;0.90;;;;;;;;;;103573;1294;545647;-71
2023/11/24 02:43:19;;;;;;;6.70;0.90;;;;;;;;;;103816;1292;545950;-71
2023/11/24 02:46:58;;;;;;;4.60;1.00;;;;;;;;;;103790;1289;544808;-72
2023/11/24 02:50:35;;;;;;;6.10;1.00;;;;;;;;;;103949;1289;545359;-74
2023/11/24 02:54:12;;;;;;;6.70;1.00;;;;;;;;;;103752;1291;545015;-71
2023/11/24 02:57:48;;;;;;;5.90;0.90;;;;;;;;;;103809;1295;544798;-72
2023/11/24 03:01:28;;;;;;;6.70;1.10;;;;;;;;;;103581;1293;545316;-73
2023/11/24 03:05:06;;;;;;;7.90;1.20;;;;;;;;;;103894;1289;545516;-72
2023/11/24 03:08:42;;;;;;;5.70;1.10;;;;;;;;;;103837;1290;545303;-73
2023/11/24 03:12:21;;;;;;;7.00;1.20;;;;;;;;;;103981;1288;545538;-72
2023/11/24 03:15:57;;;;;;;7.90;1.40;;;;;;;;;;103524;1295;545211;-73
2023/11/24 03:19:34;;;;;;;6.40;1.40;;;;;;;;;;103573;1295;545342;-72
2023/11/24 03:23:12;;;;;;;7.50;1.50;;;;;;;;;;103867;1305;545916;-71
2023/11/24 03:26:49;;;;;;;8.90;1.60;;;;;;;;;;103816;1292;544913;-71
2023/11/24 03:30:27;;;;;;;8.80;1.40;;;;;;;;;;103484;1294;545533;-72
2023/11/24 03:34:05;;;;;;;6.00;1.10;;;;;;;;;;103794;1292;544791;-73
2023/11/24 03:37:42;;;;;;;11.50;1.60;;;;;;;;;;103867;1290;545108;-72
2023/11/24 03:41:19;;;;;;;7.30;1.40;;;;;;;;;;103781;1291;544728;-73
2023/11/24 03:44:57;;;;;;;10.60;1.60;;;;;;;;;;103779;1302;544872;-72
2023/11/24 03:48:40;;;;;;;13.00;1.80;;;;;;;;;;103649;1291;547843;-74
2023/11/24 03:52:12;;;;;;;8.10;1.60;;;;;;;;;;103787;1289;544955;-73
2023/11/24 03:55:49;;;;;;;6.10;1.30;;;;;;;;;;104088;1286;545042;-72
2023/11/24 03:59:27;;;;;;;8.30;1.50;;;;;;;;;;103754;1289;544820;-71
2023/11/24 04:03:04;;;;;;;6.40;1.30;;;;;;;;;;103629;1293;546127;-72
2023/11/24 04:06:42;;;;;;;11.80;1.90;;;;;;;;;;103639;1296;545637;-73
2023/11/24 04:10:25;;;;;;;11.00;1.70;;;;;;;;;;103944;1288;548017;-72
2023/11/24 04:13:56;;;;;;;13.70;2.20;;;;;;;;;;104006;1301;545180;-72
2023/11/24 04:17:34;;;;;;;8.30;1.50;;;;;;;;;;103647;1292;545521;-72
2023/11/24 04:21:12;;;;;;;9.30;1.40;;;;;;;;;;103788;1289;545108;-72
2023/11/24 04:24:45;;;;;;;12.90;2.00;;;;;;;;;;103961;1293;544763;-73
2023/11/24 04:28:26;;;;;;;10.30;1.80;;;;;;;;;;103638;1292;545721;-73
2023/11/24 04:32:05;;;;;;;8.00;1.70;;;;;;;;;;103622;1295;545271;-73
2023/11/24 04:35:41;;;;;;;9.20;1.80;;;;;;;;;;103744;1292;544789;-71
2023/11/24 04:39:18;;;;;;;9.40;1.90;;;;;;;;;;103984;1289;545028;-73
2023/11/24 04:42:56;;;;;;;10.60;1.70;;;;;;;;;;103593;1294;545241;-73
2023/11/24 04:46:39;;;;;;;10.40;1.50;;;;;;;;;;103347;1297;547867;-72
2023/11/24 04:50:12;;;;;;;8.90;1.30;;;;;;;;;;103842;1289;545519;-73
2023/11/24 04:53:48;;;;;;;11.70;2.00;;;;;;;;;;103809;1291;544794;-72
2023/11/24 04:57:25;;;;;;;7.20;1.40;;;;;;;;;;103769;1289;544820;-72
2023/11/24 05:01:04;;;;;;;9.80;1.60;;;;;;;;;;104074;1289;544947;-73
2023/11/24 05:04:41;;;;;;;10.30;1.50;;;;;;;;;;103565;1294;545608;-72
2023/11/24 05:08:14;;;;;;;10.20;1.50;;;;;;;;;;103774;1295;544948;-73
2023/11/24 05:11:52;;;;;;;9.30;1.60;;;;;;;;;;103858;1288;544850;-73
2023/11/24 05:15:34;;;;;;;10.10;1.70;;;;;;;;;;103801;1301;544824;-72
2023/11/24 05:19:11;;;;;;;6.90;1.20;;;;;;;;;;103818;1290;545862;-73
2023/11/24 05:22:48;;;;;;;9.30;1.30;;;;;;;;;;103872;1289;545270;-72
2023/11/24 05:26:25;;;;;;;9.80;1.60;;;;;;;;;;103611;1297;544843;-72
2023/11/24 05:30:08;;;;;;;7.50;1.70;;;;;;;;;;103665;1297;545471;-73
2023/11/24 05:33:41;;;;;;;8.70;1.40;;;;;;;;;;103769;1292;544854;-72
2023/11/24 05:37:18;;;;;;;7.70;1.50;;;;;;;;;;103728;1292;545195;-72
2023/11/24 05:40:55;;;;;;;10.30;2.10;;;;;;;;;;103747;1289;545084;-72
2023/11/24 05:44:33;;;;;;;6.30;1.30;;;;;;;;;;103755;1294;545576;-72
2023/11/24 05:48:11;;;;;;;7.50;1.40;;;;;;;;;;103739;1292;545556;-72
2023/11/24 05:51:53;;;;;;;7.80;1.50;;;;;;;;;;103745;1290;549888;-71
2023/11/24 05:55:25;;;;;;;7.20;1.40;;;;;;;;;;103526;1295;545639;-71
2023/11/24 05:59:03;;;;;;;9.20;2.00;;;;;;;;;;103812;1289;544977;-72
2023/11/24 06:02:40;;;;;;;9.10;2.00;;;;;;;;;;103816;1289;544970;-72
2023/11/24 06:06:14;;;;;;;9.60;1.60;;;;;;;;;;103974;1289;545105;-73
2023/11/24 06:09:55;;;;;;;7.70;1.70;;;;;;;;;;103781;1290;546194;-72
2023/11/24 06:13:36;;;;;;;9.10;1.70;;;;;;;;;;103976;1289;544848;-72
2023/11/24 06:17:11;;;;;;;8.60;1.70;;;;;;;;;;103618;1294;545994;-71
2023/11/24 06:20:47;;;;;;;12.00;1.90;;;;;;;;;;103825;1292;545057;-72
2023/11/24 06:24:25;;;;;;;9.60;2.20;;;;;;;;;;103843;1290;545502;-73
2023/11/24 06:28:02;;;;;;;8.70;1.50;;;;;;;;;;103805;1292;544776;-71
2023/11/24 06:31:40;;;;;;;9.50;2.50;;;;;;;;;;104397;1285;545371;-71
2023/11/24 06:35:17;;;;;;;11.60;2.40;;;;;;;;;;103835;1289;544971;-72
2023/11/24 06:38:55;;;;;;;11.80;2.60;;;;;;;;;;103811;1302;545040;-71
2023/11/24 06:42:32;;;;;;;9.50;2.20;;;;;;;;;;103947;1288;545317;-72
2023/11/24 06:46:11;;;;;;;9.50;2.00;;;;;;;;;;103793;1291;545227;-73
2023/11/24 06:49:47;;;;;;;11.40;2.00;;;;;;;;;;103703;1294;545862;-72
2023/11/24 06:53:25;;;;;;;9.80;1.80;;;;;;;;;;103853;1289;544952;-73
2023/11/24 06:57:02;;;;;;;8.50;1.70;;;;;;;;;;103658;1295;544835;-72
2023/11/24 07:00:40;;;;;;;10.90;2.00;;;;;;;;;;103915;1289;544992;-73
2023/11/24 07:04:23;;;;;;;8.20;1.60;;;;;;;;;;103866;1291;548096;-71
2023/11/24 07:07:54;;;;;;;8.70;1.70;;;;;;;;;;103941;1290;545210;-72
2023/11/24 07:11:32;;;;;;;10.90;2.40;;;;;;;;;;103650;1292;545138;-74
2023/11/24 07:15:11;;;;;;;8.80;1.90;;;;;;;;;;103738;1292;546640;-72
2023/11/24 07:18:47;;;;;;;8.20;1.90;;;;;;;;;;103690;1289;545399;-72
2023/11/24 07:22:25;;;;;;;8.90;1.40;;;;;;;;;;103865;1295;545813;-72
2023/11/24 07:26:02;;;;;;;8.80;1.70;;;;;;;;;;103836;1289;544842;-73
2023/11/24 07:29:40;;;;;;;9.60;1.70;;;;;;;;;;103943;1301;544972;-76
2023/11/24 07:33:17;;;;;;;7.30;1.40;;;;;;;;;;104119;1289;545819;-74
2023/11/24 07:36:55;;;;;;;9.10;1.60;;;;;;;;;;103813;1295;545069;-74
2023/11/24 07:40:32;;;;;;;7.70;1.70;;;;;;;;;;103587;1298;545744;-71
2023/11/24 07:44:09;;;;;;;8.00;1.60;;;;;;;;;;103834;1289;544983;-73
2023/11/24 07:48:06;;;;;;;5.30;1.40;;;;;;;;;;103757;1294;548078;-72
2023/11/24 07:51:24;;;;;;;8.80;1.80;;;;;;;;;;103808;1303;545334;-72
2023/11/24 07:55:02;;;;;;;8.10;1.50;;;;;;;;;;103828;1290;544772;-73
2023/11/24 07:58:39;;;;;;;6.40;1.30;;;;;;;;;;103920;1289;545019;-72
2023/11/24 08:02:13;;;;;;;8.70;1.20;;;;;;;;;;103874;1289;545482;-74
2023/11/24 08:05:55;;;;;;;7.30;1.50;;;;;;;;;;103993;1289;544985;-73
2023/11/24 08:09:32;;;;;;;7.60;1.70;;;;;;;;;;103832;1289;545905;-73
2023/11/24 08:13:09;;;;;;;6.60;1.60;;;;;;;;;;103880;1292;545130;-72
2023/11/24 08:16:47;;;;;;;6.40;1.20;;;;;;;;;;103880;1289;544991;-73
2023/11/24 08:20:24;;;;;;;7.20;1.20;;;;;;;;;;103793;1289;545050;-72
2023/11/24 08:24:01;;;;;;;6.40;1.30;;;;;;;;;;104121;1286;545605;-72
2023/11/24 08:27:39;;;;;;;5.80;0.90;;;;;;;;;;103800;1291;545678;-72
2023/11/24 08:31:17;;;;;;;7.70;1.50;;;;;;;;;;103686;1292;544859;-72
2023/11/24 08:34:54;;;;;;;6.20;1.40;;;;;;;;;;104508;1289;544909;-71
2023/11/24 08:38:32;;;;;;;6.50;1.30;;;;;;;;;;103725;1291;544973;-73
2023/11/24 08:42:10;;;;;;;7.20;1.40;;;;;;;;;;103840;1292;545934;-74
2023/11/24 08:45:52;;;;;;;6.90;1.30;;;;;;;;;;103636;1292;548010;-76
2023/11/24 08:49:24;;;;;;;7.80;1.30;;;;;;;;;;103882;1289;544771;-71
2023/11/24 08:53:04;;;;;;;5.80;1.00;;;;;;;;;;103815;1289;545685;-72
2023/11/24 08:56:44;;;;;;;8.80;1.50;;;;;;;;;;103678;1292;548409;-71
2023/11/24 09:00:16;;;;;;;5.10;1.20;;;;;;;;;;103613;1294;545553;-72
2023/11/24 09:03:54;;;;;;;5.20;1.10;;;;;;;;;;103948;1288;544716;-71
2023/11/24 09:07:31;;;;;;;6.30;1.10;;;;;;;;;;103879;1288;544986;-70
2023/11/24 09:11:08;;;;;;;8.20;1.30;;;;;;;;;;103797;1289;544810;-71
2023/11/24 09:14:46;;;;;;;5.40;1.10;;;;;;;;;;103806;1289;544942;-73
2023/11/24 09:18:23;;;;;;;6.60;1.00;;;;;;;;;;103595;1295;544823;-72
2023/11/24 09:22:07;;;;;;;6.40;1.10;;;;;;;;;;103928;1288;548038;-72
2023/11/24 09:25:38;;;;;;;5.30;1.30;;;;;;;;;;103814;1289;544778;-72
2023/11/24 09:29:16;;;;;;;7.90;1.40;;;;;;;;;;103834;1291;545290;-71
2023/11/24 09:32:54;;;;;;;7.60;1.30;;;;;;;;;;103868;1291;545037;-71
2023/11/24 09:36:31;;;;;;;10.30;2.60;;;;;;;;;;103828;1292;544735;-72
2023/11/24 09:40:12;;;;;;;5.40;1.30;;;;;;;;;;103789;1291;545529;-73
2023/11/24 09:43:46;;;;;;;6.10;1.30;;;;;;;;;;103711;1289;545313;-72
2023/11/24 09:47:23;;;;;;;9.60;2.10;;;;;;;;;;104142;1287;545396;-70
2023/11/24 09:51:03;;;;;;;7.70;1.70;;;;;;;;;;103850;1291;545054;-72
2023/11/24 09:54:40;;;;;;;6.10;1.70;;;;;;;;;;103796;1292;546257;-73
2023/11/24 09:58:20;;;;;;;8.40;1.50;;;;;;;;;;104089;1291;546134;-72
2023/11/24 10:01:54;;;;;;;9.10;1.80;;;;;;;;;;104492;1288;544946;-71
2023/11/24 10:05:32;;;;;;;8.90;1.50;;;;;;;;;;104455;1285;544608;-71
2023/11/24 10:09:10;;;;;;;6.80;1.30;;;;;;;;;;103745;1295;545002;-72
2023/11/24 10:12:45;;;;;;;10.50;2.20;;;;;;;;;;103472;1294;544870;-71
2023/11/24 10:16:23;;;;;;;16.80;5.70;;;;;;;;;;103697;1289;544965;-71
2023/11/24 10:20:10;;;;;;;29.90;15.60;;;;;;;;;;103563;1295;544981;-71
2023/11/24 10:23:39;;;;;;;11.30;5.20;;;;;;;;;;103962;1289;545684;-72
2023/11/24 10:27:20;;;;;;;6.80;1.90;;;;;;;;;;103789;1290;545646;-73
2023/11/24 10:30:53;;;;;;;8.70;1.90;;;;;;;;;;103746;1292;545072;-72
2023/11/24 10:34:30;;;;;;;8.60;1.60;;;;;;;;;;103891;1292;545374;-71
2023/11/24 10:38:07;;;;;;;8.00;1.50;;;;;;;;;;103779;1291;545917;-75
2023/11/24 10:41:46;;;;;;;8.70;1.40;;;;;;;;;;103637;1291;544954;-72
2023/11/24 10:45:22;;;;;;;7.20;1.30;;;;;;;;;;103853;1292;545664;-73
2023/11/24 10:49:24;;;;;;;9.50;2.20;;;;;;;;;;103755;1289;544860;-73
2023/11/24 10:52:41;;;;;;;8.40;2.00;;;;;;;;;;103843;1289;545917;-71
2023/11/24 10:56:13;;;;;;;7.60;2.00;;;;;;;;;;103839;1292;544941;-73
2023/11/24 10:59:52;;;;;;;7.90;2.50;;;;;;;;;;104133;1286;544994;-73
2023/11/24 11:03:31;;;;;;;7.40;2.10;;;;;;;;;;103771;1290;544986;-75
2023/11/24 11:07:07;;;;;;;7.00;1.50;;;;;;;;;;103789;1292;545192;-73
2023/11/24 11:11:06;;;;;;;8.60;1.80;;;;;;;;;;103614;1295;548066;-71
2023/11/24 11:14:23;;;;;;;9.70;2.40;;;;;;;;;;103999;1289;544718;-73
2023/11/24 11:18:10;;;;;;;10.20;1.80;;;;;;;;;;103705;1301;545052;-72
2023/11/24 11:21:39;;;;;;;10.40;2.50;;;;;;;;;;103777;1291;544947;-71
2023/11/24 11:25:27;;;;;;;9.10;2.10;;;;;;;;;;103720;1298;544857;-72
2023/11/24 11:28:58;;;;;;;8.70;1.70;;;;;;;;;;103858;1291;547798;-72
2023/11/24 11:32:31;;;;;;;8.30;1.90;;;;;;;;;;103988;1288;544973;-74
2023/11/24 11:36:10;;;;;;;9.80;1.70;;;;;;;;;;103562;1295;545129;-71
2023/11/24 11:39:54;;;;;;;8.40;1.40;;;;;;;;;;104051;1289;544951;-75
2023/11/24 11:43:25;;;;;;;10.60;2.20;;;;;;;;;;103834;1288;544779;-72
2023/11/24 11:47:18;;;;;;;7.40;1.50;;;;;;;;;;103812;1290;545049;-71
2023/11/24 11:50:39;;;;;;;8.20;1.70;;;;;;;;;;103545;1294;544950;-73
2023/11/24 11:54:10;;;;;;;7.40;1.50;;;;;;;;;;103895;1289;545121;-72
2023/11/24 11:57:55;;;;;;;11.40;2.20;;;;;;;;;;103825;1288;545269;-72
2023/11/24 12:01:30;;;;;;;10.40;3.20;;;;;;;;;;103777;1290;545298;-72
2023/11/24 12:05:07;;;;;;;9.70;2.50;;;;;;;;;;103828;1289;544987;-71
2023/11/24 12:08:44;;;;;;;9.70;2.30;;;;;;;;;;103772;1303;544968;-72
2023/11/24 12:12:22;;;;;;;9.40;2.50;;;;;;;;;;103775;1296;545427;-71
2023/11/24 12:15:59;;;;;;;9.50;1.70;;;;;;;;;;103779;1293;545115;-73
2023/11/24 12:19:37;;;;;;;9.00;2.30;;;;;;;;;;103746;1292;545580;-71
2023/11/24 12:23:21;;;;;;;11.60;2.20;;;;;;;;;;103579;1294;549869;-71
2023/11/24 12:26:52;;;;;;;7.20;1.40;;;;;;;;;;103843;1293;545555;-72
2023/11/24 12:30:31;;;;;;;8.00;1.40;;;;;;;;;;103796;1290;544999;-72
2023/11/24 12:34:20;;;;;;;7.70;1.70;;;;;;;;;;103822;1289;544847;-70
2023/11/24 12:37:41;;;;;;;8.40;1.70;;;;;;;;;;103899;1289;544811;-72
2023/11/24 12:41:21;;;;;;;6.90;1.70;;;;;;;;;;103800;1289;545017;-72
2023/11/24 12:44:59;;;;;;;8.70;2.40;;;;;;;;;;103786;1291;545014;-73
2023/11/24 12:48:39;;;;;;;6.40;2.40;;;;;;;;;;103569;1295;545088;-73
2023/11/24 12:52:12;;;;;;;7.50;2.40;;;;;;;;;;104554;1283;545110;-72
2023/11/24 12:55:51;;;;;;;9.30;3.10;;;;;;;;;;103925;1288;544747;-73
2023/11/24 12:59:29;;;;;;;9.50;3.10;;;;;;;;;;103951;1292;546049;-72
2023/11/24 13:03:07;;;;;;;8.80;2.70;;;;;;;;;;103803;1293;545446;-72
2023/11/24 13:06:44;;;;;;;8.10;3.00;;;;;;;;;;103744;1290;545604;-73
2023/11/24 13:10:22;;;;;;;9.20;3.40;;;;;;;;;;104082;1289;545056;-72
2023/11/24 13:13:59;;;;;;;9.40;3.10;;;;;;;;;;103945;1288;544790;-73
2023/11/24 13:17:36;;;;;;;9.30;3.80;;;;;;;;;;103786;1290;545727;-73
2023/11/24 13:21:13;;;;;;;12.00;5.40;;;;;;;;;;103947;1289;544851;-73
2023/11/24 13:24:47;;;;;;;10.40;4.40;;;;;;;;;;103845;1289;544890;-73
2023/11/24 13:28:29;;;;;;;17.30;6.50;;;;;;;;;;103873;1290;544998;-71
2023/11/24 13:32:07;;;;;;;10.10;4.40;;;;;;;;;;103778;1289;545769;-74
2023/11/24 13:35:43;;;;;;;9.40;3.50;;;;;;;;;;103756;1292;544964;-73
2023/11/24 13:39:24;;;;;;;12.70;5.30;;;;;;;;;;103737;1291;545034;-73
2023/11/24 13:42:57;;;;;;;14.50;5.50;;;;;;;;;;103821;1295;544780;-73
2023/11/24 13:46:37;;;;;;;12.80;5.10;;;;;;;;;;104112;1286;545200;-73
2023/11/24 13:50:15;;;;;;;8.30;2.70;;;;;;;;;;103781;1291;547920;-72
2023/11/24 13:53:53;;;;;;;8.40;3.20;;;;;;;;;;103787;1292;545650;-73
2023/11/24 13:57:28;;;;;;;10.90;3.50;;;;;;;;;;103792;1288;544862;-71
2023/11/24 14:01:05;;;;;;;11.00;4.00;;;;;;;;;;103608;1293;545069;-73
2023/11/24 14:04:39;;;;;;;11.00;2.50;;;;;;;;;;104047;1289;544789;-75
2023/11/24 14:08:20;;;;;;;9.20;2.80;;;;;;;;;;103781;1292;544989;-73
2023/11/24 14:12:01;;;;;;;10.30;2.90;;;;;;;;;;103801;1292;544875;-72
2023/11/24 14:15:35;;;;;;;27.50;13.50;;;;;;;;;;103722;1292;545674;-73
2023/11/24 14:19:13;;;;;;;9.50;2.70;;;;;;;;;;103748;1301;545650;-71
2023/11/24 14:22:52;;;;;;;13.40;5.30;;;;;;;;;;103677;1291;544930;-72
2023/11/24 14:26:28;;;;;;;13.00;4.40;;;;;;;;;;103776;1290;545110;-72
2023/11/24 14:30:06;;;;;;;18.10;8.60;;;;;;;;;;103755;1303;544813;-72
2023/11/24 14:33:43;;;;;;;17.20;10.20;;;;;;;;;;103899;1295;544808;-72
2023/11/24 14:37:19;;;;;;;19.60;8.20;;;;;;;;;;103873;1291;544874;-72
2023/11/24 14:41:04;;;;;;;13.90;7.00;;;;;;;;;;103554;1298;546179;-73
2023/11/24 14:44:40;;;;;;;7.10;1.90;;;;;;;;;;103677;1295;549108;-73
2023/11/24 14:48:14;;;;;;;31.70;11.80;;;;;;;;;;103835;1292;546000;-72
2023/11/24 14:51:50;;;;;;;33.10;16.80;;;;;;;;;;103762;1289;545258;-72
2023/11/24 14:55:28;;;;;;;12.20;4.30;;;;;;;;;;103761;1291;545124;-72
2023/11/24 14:59:05;;;;;;;15.80;6.50;;;;;;;;;;103736;1291;545055;-72
2023/11/24 15:02:43;;;;;;;11.20;4.70;;;;;;;;;;103669;1291;545019;-72
2023/11/24 15:06:25;;;;;;;14.00;3.80;;;;;;;;;;103830;1290;545067;-72
2023/11/24 15:09:58;;;;;;;14.20;4.60;;;;;;;;;;104603;1282;544957;-73
2023/11/24 15:13:35;;;;;;;14.20;5.70;;;;;;;;;;103832;1289;545156;-72
2023/11/24 15:17:16;;;;;;;14.90;4.60;;;;;;;;;;103727;1291;545131;-72
2023/11/24 15:20:53;;;;;;;19.40;6.10;;;;;;;;;;103807;1289;545713;-72
2023/11/24 15:24:31;;;;;;;18.60;4.20;;;;;;;;;;103889;1288;545943;-72
2023/11/24 15:28:11;;;;;;;11.40;3.70;;;;;;;;;;103781;1291;544916;-74
2023/11/24 15:31:44;;;;;;;13.40;4.70;;;;;;;;;;103900;1292;545151;-72
2023/11/24 15:35:19;;;;;;;13.80;6.00;;;;;;;;;;103712;1291;545007;-75
2023/11/24 15:38:58;;;;;;;15.10;6.70;;;;;;;;;;103611;1292;544753;-73
2023/11/24 15:42:35;;;;;;;15.80;6.80;;;;;;;;;;103800;1292;544962;-73
2023/11/24 15:46:17;;;;;;;15.80;5.90;;;;;;;;;;103749;1290;546168;-73
2023/11/24 15:49:50;;;;;;;34.80;20.30;;;;;;;;;;103673;1291;545345;-74
2023/11/24 15:53:29;;;;;;;37.60;18.40;;;;;;;;;;103730;1290;545085;-72
2023/11/24 15:57:04;;;;;;;40.10;19.40;;;;;;;;;;103744;1292;544727;-72
2023/11/24 16:00:49;;;;;;;33.90;12.20;;;;;;;;;;103786;1290;544971;-73
2023/11/24 16:04:22;;;;;;;18.90;7.20;;;;;;;;;;104248;1303;546040;-71
2023/11/24 16:07:56;;;;;;;38.60;14.10;;;;;;;;;;104382;1283;545113;-73
2023/11/24 16:11:34;;;;;;;38.80;14.10;;;;;;;;;;103811;1292;544767;-72
2023/11/24 16:15:15;;;;;;;58.30;22.20;;;;;;;;;;103749;1292;545668;-73
2023/11/24 16:18:47;;;;;;;98.50;38.50;;;;;;;;;;103769;1292;545714;-74
2023/11/24 16:22:26;;;;;;;47.40;18.60;;;;;;;;;;103787;1291;545893;-71
2023/11/24 16:26:04;;;;;;;22.20;9.60;;;;;;;;;;103679;1291;544980;-72
2023/11/24 16:29:42;;;;;;;45.50;22.80;;;;;;;;;;103752;1292;545065;-72
2023/11/24 16:33:19;;;;;;;25.10;12.30;;;;;;;;;;104134;1285;545396;-74
2023/11/24 16:36:56;;;;;;;26.90;16.20;;;;;;;;;;103796;1289;544798;-73
2023/11/24 16:40:40;;;;;;;12.10;5.80;;;;;;;;;;103631;1293;548013;-72
2023/11/24 16:44:07;;;;;;;18.00;11.60;;;;;;;;;;103842;1289;545726;-72
2023/11/24 16:47:54;;;;;;;16.00;7.90;;;;;;;;;;103911;1292;547811;-73
2023/11/24 16:51:27;;;;;;;10.40;3.60;;;;;;;;;;103671;1293;545031;-72
2023/11/24 16:55:04;;;;;;;11.70;5.50;;;;;;;;;;103719;1290;544790;-74
2023/11/24 16:58:42;;;;;;;12.60;5.20;;;;;;;;;;104527;1282;545085;-73
2023/11/24 17:02:14;;;;;;;14.40;7.20;;;;;;;;;;103761;1292;544728;-72
2023/11/24 17:05:55;;;;;;;12.90;5.00;;;;;;;;;;103829;1292;544810;-71
2023/11/24 17:09:33;;;;;;;21.80;9.60;;;;;;;;;;104559;1285;544928;-74
2023/11/24 17:13:11;;;;;;;19.20;10.90;;;;;;;;;;103885;1289;545077;-71
2023/11/24 17:16:51;;;;;;;19.00;9.50;;;;;;;;;;103778;1289;544995;-73
2023/11/24 17:20:25;;;;;;;22.90;11.40;;;;;;;;;;103824;1290;544997;-73
2023/11/24 17:24:03;;;;;;;11.80;3.80;;;;;;;;;;103818;1289;544996;-73
2023/11/24 17:27:41;;;;;;;15.90;5.80;;;;;;;;;;103929;1301;545433;-72
2023/11/24 17:31:23;;;;;;;24.40;12.20;;;;;;;;;;103760;1291;546219;-73
2023/11/24 17:34:56;;;;;;;23.70;10.60;;;;;;;;;;103952;1288;545010;-72
2023/11/24 17:38:36;;;;;;;26.40;9.80;;;;;;;;;;103537;1294;544870;-74
2023/11/24 17:42:13;;;;;;;22.40;10.00;;;;;;;;;;103774;1290;549833;-72
2023/11/24 17:45:52;;;;;;;19.30;6.80;;;;;;;;;;103833;1292;545249;-73
2023/11/24 17:49:26;;;;;;;20.00;6.60;;;;;;;;;;103566;1293;545372;-71
2023/11/24 17:53:03;;;;;;;27.50;10.40;;;;;;;;;;103787;1289;545824;-73
2023/11/24 17:56:41;;;;;;;17.80;6.70;;;;;;;;;;103793;1290;544788;-72
2023/11/24 18:00:21;;;;;;;19.90;7.80;;;;;;;;;;103786;1289;545061;-73
2023/11/24 18:03:56;;;;;;;17.30;6.00;;;;;;;;;;103825;1289;545491;-72
2023/11/24 18:07:34;;;;;;;14.50;4.80;;;;;;;;;;103825;1291;544940;-74
2023/11/24 18:11:13;;;;;;;36.10;13.80;;;;;;;;;;103768;1295;547756;-73
2023/11/24 18:14:47;;;;;;;19.90;7.50;;;;;;;;;;103830;1289;545972;-74
2023/11/24 18:18:25;;;;;;;13.00;5.00;;;;;;;;;;103850;1293;544802;-73
2023/11/24 18:22:46;;;;;;;22.10;7.90;;;;;;;;;;103979;1296;547775;-72
2023/11/24 18:25:41;;;;;;;10.30;3.50;;;;;;;;;;104108;1289;545528;-72
2023/11/24 18:29:18;;;;;;;9.80;2.70;;;;;;;;;;103582;1306;545381;-72
2023/11/24 18:33:00;;;;;;;11.40;4.40;;;;;;;;;;103599;1295;548354;-73
2023/11/24 18:36:32;;;;;;;13.10;4.20;;;;;;;;;;103792;1289;544839;-71
2023/11/24 18:40:30;;;;;;;11.80;3.90;;;;;;;;;;103693;1295;547790;-72
2023/11/24 18:43:49;;;;;;;13.70;4.90;;;;;;;;;;104499;1282;545511;-71
2023/11/24 18:47:28;;;;;;;10.70;3.50;;;;;;;;;;104208;1288;545600;-72
2023/11/24 18:51:03;;;;;;;11.30;4.10;;;;;;;;;;103677;1295;544998;-73
2023/11/24 18:54:40;;;;;;;36.20;15.20;;;;;;;;;;103508;1294;545917;-72
2023/11/24 18:58:21;;;;;;;38.40;18.80;;;;;;;;;;104116;1287;545723;-71
2023/11/24 19:01:57;;;;;;;15.00;7.30;;;;;;;;;;103892;1289;545532;-73
2023/11/24 19:05:32;;;;;;;14.60;5.90;;;;;;;;;;103691;1295;545437;-73
2023/11/24 19:09:15;;;;;;;13.90;5.20;;;;;;;;;;103591;1294;545957;-73
2023/11/24 19:12:50;;;;;;;14.60;5.70;;;;;;;;;;103893;1289;545848;-73
2023/11/24 19:16:24;;;;;;;9.60;3.20;;;;;;;;;;103886;1294;545692;-73
2023/11/24 19:20:02;;;;;;;19.50;5.90;;;;;;;;;;103887;1290;544765;-71
2023/11/24 19:23:39;;;;;;;17.90;6.50;;;;;;;;;;104002;1292;544991;-73
2023/11/24 19:27:40;;;;;;;13.40;6.80;;;;;;;;;;103787;1289;549690;-72
2023/11/24 19:31:00;;;;;;;12.70;4.70;;;;;;;;;;103773;1294;548305;-73
2023/11/24 19:34:35;;;;;;;11.20;5.50;;;;;;;;;;103760;1292;544784;-73
2023/11/24 19:38:12;;;;;;;8.50;2.10;;;;;;;;;;103845;1291;545052;-72
2023/11/24 19:41:48;;;;;;;9.40;3.10;;;;;;;;;;103841;1292;546396;-73
2023/11/24 19:45:25;;;;;;;8.50;2.30;;;;;;;;;;103889;1292;545545;-71
2023/11/24 19:49:06;;;;;;;7.20;2.10;;;;;;;;;;103818;1292;545016;-73
2023/11/24 19:52:44;;;;;;;19.30;4.80;;;;;;;;;;103744;1295;545910;-72
2023/11/24 19:56:18;;;;;;;15.50;4.80;;;;;;;;;;103764;1290;545011;-74
2023/11/24 19:59:55;;;;;;;38.00;16.30;;;;;;;;;;103793;1292;544811;-73
2023/11/24 20:03:54;;;;;;;47.50;18.00;;;;;;;;;;103985;1291;547966;-75
2023/11/24 20:07:12;;;;;;;7.00;1.70;;;;;;;;;;104145;1289;546093;-73
2023/11/24 20:10:47;;;;;;;18.10;7.80;;;;;;;;;;103823;1291;545144;-72
2023/11/24 20:14:24;;;;;;;12.30;4.30;;;;;;;;;;103841;1292;545233;-73
2023/11/24 20:18:05;;;;;;;20.90;7.70;;;;;;;;;;103808;1291;544920;-72
2023/11/24 20:21:40;;;;;;;12.30;4.20;;;;;;;;;;103765;1295;545338;-72
2023/11/24 20:25:20;;;;;;;10.80;4.20;;;;;;;;;;104283;1285;546453;-74
2023/11/24 20:28:55;;;;;;;8.10;2.90;;;;;;;;;;104356;1286;545048;-72
2023/11/24 20:32:33;;;;;;;9.80;4.00;;;;;;;;;;103788;1294;544974;-72
2023/11/24 20:36:09;;;;;;;9.20;3.30;;;;;;;;;;103883;1293;545046;-72
2023/11/24 20:39:48;;;;;;;6.20;2.30;;;;;;;;;;103803;1291;545000;-71
2023/11/24 20:43:24;;;;;;;6.80;2.90;;;;;;;;;;103873;1289;544796;-72
2023/11/24 20:47:02;;;;;;;7.70;2.50;;;;;;;;;;103774;1292;545350;-74
2023/11/24 20:50:38;;;;;;;42.10;21.00;;;;;;;;;;103847;1292;545398;-72
2023/11/24 20:54:17;;;;;;;22.20;9.60;;;;;;;;;;103754;1292;545118;-72